Time;durP1;ratioP1;P1;durP2;ratioP2;P2;SDS_P1;SDS_P2;PMS_P1;PMS_P2;Temp;Humidity;BMP_temperature;BMP_pressure;BME280_temperature;BME280_humidity;BME280_pressure;Samples;Min_cycle;Max_cycle;Signal;HPM_P1;HPM_P2
2021/01/02 01:19:39;;;;;;;35.67;13.40;;;;;;;-1.13;83.89;99542.77;1780300;76;21153;31
2021/01/02 02:11:42;;;;;;;29.02;10.30;;;;;;;-1.36;85.31;99540.81;1798160;75;21410;-81
2021/01/02 03:14:31;;;;;;;28.85;9.88;;;;;;;-1.27;85.51;99519.83;1690070;80;21196;-82
2021/01/02 04:37:50;;;;;;;23.10;9.83;;;;;;;-1.74;86.00;99569.83;1780176;76;21321;31
2021/01/02 04:40:42;;;;;;;21.73;10.97;;;;;;;-1.74;85.50;99562.59;1738844;76;21237;31
2021/01/02 04:56:51;;;;;;;22.10;8.55;;;;;;;-1.69;85.93;99564.86;1776413;76;21185;31
2021/01/02 05:51:09;;;;;;;23.83;11.18;;;;;;;-1.95;85.39;99613.34;1742037;77;21146;31
2021/01/02 05:54:00;;;;;;;17.50;9.88;;;;;;;-2.02;85.54;99614.80;1783922;76;21208;31
2021/01/02 06:38:01;;;;;;;20.65;9.13;;;;;;;-2.13;86.24;99637.80;1767863;76;22317;31
2021/01/02 06:47:21;;;;;;;29.72;10.35;;;;;;;-2.13;86.30;99647.98;1739102;79;21183;31
2021/01/02 06:56:18;;;;;;;20.97;10.10;;;;;;;-2.11;86.30;99656.55;1788643;76;20431;31
2021/01/02 09:00:20;;;;;;;94.20;33.70;;;;;;;0.39;84.00;99691.63;1779148;77;21229;-81
2021/01/02 09:16:06;;;;;;;17.52;8.73;;;;;;;0.91;82.38;99675.39;1781113;76;22433;31
2021/01/02 09:18:38;;;;;;;17.77;7.75;;;;;;;0.97;81.54;99664.01;1782487;76;21201;31
2021/01/02 09:40:18;;;;;;;16.77;7.72;;;;;;;1.59;79.77;99653.37;1817840;77;21115;-89
2021/01/02 09:42:47;;;;;;;20.40;8.65;;;;;;;1.74;79.40;99663.93;1780524;78;21156;-85
2021/01/02 09:45:16;;;;;;;17.67;8.48;;;;;;;1.83;79.52;99655.57;1768811;80;21625;-86
2021/01/02 09:47:44;;;;;;;18.48;8.43;;;;;;;1.91;79.75;99651.84;1775918;79;21259;-87
2021/01/02 09:50:12;;;;;;;17.05;8.68;;;;;;;1.96;79.50;99652.80;1777834;77;21442;-87
2021/01/02 09:52:40;;;;;;;21.73;8.98;;;;;;;2.03;78.95;99652.09;1808172;77;21156;-89
2021/01/02 09:55:12;;;;;;;14.70;7.65;;;;;;;1.84;78.98;99607.28;1814384;77;21145;-83
2021/01/02 10:10:33;;;;;;;14.87;7.55;;;;;;;2.53;78.01;99618.72;1795956;77;21199;-91
2021/01/02 10:13:01;;;;;;;17.82;8.85;;;;;;;2.67;77.21;99616.80;1792296;76;22256;-92
2021/01/02 10:15:32;;;;;;;21.55;9.23;;;;;;;2.79;78.07;99602.85;1831198;78;21277;-92
2021/01/02 10:17:59;;;;;;;19.25;7.12;;;;;;;2.86;77.68;99599.51;1742558;78;21638;-91
2021/01/02 10:20:27;;;;;;;13.00;6.00;;;;;;;2.94;75.78;99597.05;1733009;79;21552;-92
2021/01/02 10:22:55;;;;;;;12.55;6.28;;;;;;;3.02;75.61;99590.73;1728869;77;21150;-91
2021/01/02 10:25:23;;;;;;;13.15;6.10;;;;;;;3.12;73.79;99581.02;1743308;78;21185;-90
2021/01/02 10:27:50;;;;;;;10.98;5.40;;;;;;;3.22;73.97;99583.28;1750318;81;21298;-90
2021/01/02 10:30:19;;;;;;;12.82;5.75;;;;;;;3.30;71.67;99573.95;1746947;81;21138;-91
2021/01/02 10:32:46;;;;;;;15.88;7.50;;;;;;;3.40;72.99;99562.94;1741755;81;21299;-89
2021/01/02 10:35:17;;;;;;;20.43;8.08;;;;;;;3.48;73.68;99554.91;1743690;81;21308;-90
2021/01/02 10:37:47;;;;;;;21.77;9.33;;;;;;;3.56;73.67;99558.82;1751290;78;21307;-90
2021/01/02 10:40:19;;;;;;;19.82;9.40;;;;;;;3.63;73.11;99561.05;1667397;79;21213;-90
2021/01/02 10:42:46;;;;;;;19.60;8.95;;;;;;;3.71;74.46;99556.42;1782395;79;21177;-91
2021/01/02 10:45:17;;;;;;;18.37;8.40;;;;;;;3.77;73.71;99560.33;1782323;78;21206;-90
2021/01/02 10:47:44;;;;;;;20.75;8.80;;;;;;;3.84;74.33;99553.56;1763243;78;21543;-91
2021/01/02 10:50:13;;;;;;;15.48;7.62;;;;;;;3.93;73.56;99537.33;1773489;78;21157;-91
2021/01/02 10:52:41;;;;;;;20.52;8.93;;;;;;;4.05;73.89;99536.58;1788673;79;21350;-89
2021/01/02 10:55:09;;;;;;;18.07;8.48;;;;;;;4.19;73.43;99522.95;1783836;79;21201;-91
2021/01/02 10:57:36;;;;;;;22.82;10.38;;;;;;;4.32;73.86;99520.50;1784574;78;21199;-91
2021/01/02 11:00:07;;;;;;;18.52;9.65;;;;;;;4.42;73.78;99514.55;1796159;78;21213;-91
2021/01/02 11:02:35;;;;;;;21.75;9.83;;;;;;;4.52;71.55;99513.76;1799615;78;21127;-91
2021/01/02 11:05:03;;;;;;;22.07;9.38;;;;;;;4.60;71.37;99520.68;1789920;79;21618;-92
2021/01/02 11:07:30;;;;;;;17.23;8.53;;;;;;;4.72;73.69;99512.58;1778264;79;21429;-92
2021/01/02 11:09:58;;;;;;;14.50;7.62;;;;;;;4.78;71.80;99501.45;1791263;79;21229;-90
2021/01/02 11:12:27;;;;;;;14.28;6.47;;;;;;;4.86;69.98;99506.20;1794487;79;21182;-89
2021/01/02 11:14:57;;;;;;;10.80;5.83;;;;;;;4.96;68.71;99501.96;1785017;78;21162;-88
2021/01/02 11:17:24;;;;;;;13.18;6.72;;;;;;;4.98;69.07;99497.23;1765672;78;21675;-92
2021/01/02 11:19:51;;;;;;;17.45;8.33;;;;;;;5.12;69.40;99510.17;1816979;76;21668;-92
2021/01/02 11:22:18;;;;;;;21.70;8.78;;;;;;;5.20;69.65;99502.91;1805758;78;21209;-92
2021/01/02 11:24:46;;;;;;;18.95;9.73;;;;;;;5.20;67.52;99498.61;1809330;78;21155;-92
2021/01/02 11:27:18;;;;;;;19.98;8.53;;;;;;;5.24;66.94;99496.47;1780266;77;21197;-93
2021/01/02 11:29:46;;;;;;;15.68;7.42;;;;;;;5.32;68.36;99491.34;1808794;76;21115;-92
2021/01/02 11:32:13;;;;;;;15.78;6.92;;;;;;;5.43;68.85;99490.06;1792826;77;21908;-92
2021/01/02 11:34:41;;;;;;;15.83;6.85;;;;;;;5.56;69.55;99495.68;1743803;79;21182;-92
2021/01/02 11:37:11;;;;;;;16.62;6.70;;;;;;;5.69;70.36;99484.94;1744826;79;21903;-93
2021/01/02 11:39:40;;;;;;;15.30;7.03;;;;;;;5.76;69.46;99483.66;1813773;77;21278;-91
2021/01/02 11:42:11;;;;;;;11.25;5.37;;;;;;;5.74;69.86;99454.41;1803650;78;21258;-92
2021/01/02 11:44:38;;;;;;;13.30;6.25;;;;;;;5.74;66.03;99447.97;1783451;78;21203;-92
2021/01/02 11:47:06;;;;;;;12.18;6.17;;;;;;;5.90;63.53;99482.37;1767994;79;21189;-92
2021/01/02 11:49:36;;;;;;;10.95;5.17;;;;;;;5.94;64.56;99480.66;1769422;78;21143;-91
2021/01/02 11:52:07;;;;;;;9.28;5.50;;;;;;;6.00;65.39;99475.52;1737569;78;21157;-92
2021/01/02 11:54:35;;;;;;;12.25;5.33;;;;;;;6.06;60.89;99475.95;1780575;78;21160;-91
2021/01/02 11:57:04;;;;;;;13.00;5.25;;;;;;;6.16;61.84;99473.34;1753831;77;22048;-88
2021/01/02 11:59:33;;;;;;;14.05;5.22;;;;;;;6.38;65.97;99463.84;1791894;78;22038;-88
2021/01/02 12:02:06;;;;;;;12.45;5.87;;;;;;;7.17;66.34;99469.58;1771988;79;21161;-91
2021/01/02 12:04:34;;;;;;;11.15;5.40;;;;;;;8.27;58.63;99473.95;1747889;79;21165;-91
2021/01/02 12:07:03;;;;;;;11.70;5.12;;;;;;;9.35;64.46;99462.77;1768189;77;21179;-91
2021/01/02 12:09:31;;;;;;;11.20;5.03;;;;;;;10.08;51.49;99457.72;1756260;78;21254;-90
2021/01/02 12:11:59;;;;;;;14.25;7.30;;;;;;;10.81;49.92;99462.02;1742443;82;21543;-91
2021/01/02 12:14:31;;;;;;;11.12;5.75;;;;;;;11.50;50.86;99463.14;1762911;81;21295;-86
2021/01/02 12:17:02;;;;;;;17.17;6.35;;;;;;;11.99;52.84;99456.38;1759637;78;21628;-93
2021/01/02 12:19:31;;;;;;;20.72;9.53;;;;;;;12.50;48.07;99461.98;1770715;77;21127;-91
2021/01/02 12:22:06;;;;;;;25.37;10.63;;;;;;;12.85;42.41;99464.07;1761909;77;21345;-91
2021/01/02 12:24:37;;;;;;;14.07;6.78;;;;;;;13.07;43.69;99459.51;1790168;76;21304;31
2021/01/02 12:27:08;;;;;;;13.22;6.10;;;;;;;13.36;48.27;99437.78;1725454;81;21145;-90
2021/01/02 12:29:37;;;;;;;13.35;6.20;;;;;;;13.84;43.78;99451.95;1740168;82;21168;-87
2021/01/02 12:32:10;;;;;;;14.30;6.67;;;;;;;13.93;39.79;99452.50;1739547;81;21248;-87
2021/01/02 12:34:41;;;;;;;14.20;6.58;;;;;;;14.52;38.50;99447.44;1744590;81;21291;-86
2021/01/02 12:37:13;;;;;;;14.07;7.12;;;;;;;14.74;37.15;99450.59;1743069;81;21267;-86
2021/01/02 12:39:43;;;;;;;12.05;6.47;;;;;;;14.81;41.47;99449.48;1736762;82;21298;-86
2021/01/02 12:42:12;;;;;;;10.63;5.28;;;;;;;14.52;36.83;99439.59;1743632;81;21346;-86
2021/01/02 12:47:56;;;;;;;9.60;5.15;;;;;;;13.86;45.32;99442.30;1769680;76;21228;31
2021/01/02 12:50:24;;;;;;;9.55;5.25;;;;;;;12.71;45.24;99442.28;1754952;79;21292;-89
2021/01/02 12:52:52;;;;;;;9.48;5.42;;;;;;;11.65;42.75;99440.23;1777753;79;21689;-91
2021/01/02 12:55:20;;;;;;;10.50;5.87;;;;;;;10.98;45.30;99446.50;1776377;79;21509;-86
2021/01/02 12:57:47;;;;;;;10.80;4.85;;;;;;;10.28;45.90;99441.33;1760485;77;21260;-85
2021/01/02 13:00:15;;;;;;;9.30;5.62;;;;;;;9.71;48.52;99438.42;1777248;77;21319;-93
2021/01/02 13:02:44;;;;;;;12.37;5.70;;;;;;;9.04;48.33;99438.97;1830821;77;21130;-92
2021/01/02 13:05:12;;;;;;;12.03;6.08;;;;;;;8.57;49.69;99446.89;1752694;78;21284;-91
2021/01/02 13:07:39;;;;;;;9.85;6.10;;;;;;;8.32;51.06;99448.87;1745404;80;21153;-93
2021/01/02 13:10:10;;;;;;;11.28;5.72;;;;;;;8.06;51.74;99453.02;1774275;78;21202;-90
2021/01/02 13:12:37;;;;;;;14.78;6.00;;;;;;;7.76;52.50;99441.61;1774371;79;21754;-90
2021/01/02 13:15:07;;;;;;;9.35;5.20;;;;;;;7.51;52.92;99443.95;1778511;79;21173;-90
2021/01/02 13:17:34;;;;;;;13.20;6.30;;;;;;;7.20;53.80;99441.55;1741667;78;21224;-93
2021/01/02 13:20:02;;;;;;;10.95;6.42;;;;;;;7.07;53.98;99442.50;1755733;80;21220;-92
2021/01/02 13:22:29;;;;;;;16.75;6.72;;;;;;;6.80;55.26;99446.06;1746334;80;21397;-92
2021/01/02 13:24:57;;;;;;;12.82;6.55;;;;;;;6.69;55.32;99437.93;1751708;80;21192;-90
2021/01/02 13:27:24;;;;;;;17.55;7.55;;;;;;;6.54;56.71;99437.98;1731295;80;21169;-93
2021/01/02 13:29:53;;;;;;;18.12;8.28;;;;;;;6.48;56.60;99441.88;1746096;80;21621;-92
2021/01/02 13:32:20;;;;;;;12.00;6.30;;;;;;;6.38;56.41;99444.47;1763285;80;21193;-90
2021/01/02 13:34:48;;;;;;;12.90;6.37;;;;;;;6.29;58.37;99441.08;1749641;80;21221;-91
2021/01/02 13:37:15;;;;;;;14.28;7.33;;;;;;;6.22;58.14;99436.78;1758167;80;21661;-88
2021/01/02 13:39:43;;;;;;;15.68;7.35;;;;;;;6.16;57.84;99437.20;1761815;80;21177;-91
2021/01/02 13:42:15;;;;;;;18.75;8.00;;;;;;;6.11;58.41;99438.95;1796076;77;21107;-90
2021/01/02 13:44:44;;;;;;;15.03;6.83;;;;;;;6.02;59.47;99441.97;1762648;79;21158;-91
2021/01/02 13:47:15;;;;;;;15.38;7.03;;;;;;;5.99;58.49;99448.01;1764554;77;21153;-92
2021/01/02 13:49:45;;;;;;;16.55;7.65;;;;;;;5.96;59.16;99445.41;1773986;78;21291;-92
2021/01/02 13:52:21;;;;;;;19.17;9.13;;;;;;;5.96;59.46;99442.83;1813318;78;22888;-91
2021/01/02 13:54:50;;;;;;;24.72;10.82;;;;;;;5.87;59.31;99449.25;1748790;77;21139;-90
2021/01/02 13:57:20;;;;;;;20.68;10.30;;;;;;;5.84;59.35;99449.27;1769009;79;21210;-91
2021/01/02 13:59:53;;;;;;;30.57;10.53;;;;;;;5.78;59.90;99456.13;1656444;82;21229;-91
2021/01/02 14:02:22;;;;;;;22.60;9.50;;;;;;;5.68;59.97;99452.27;1653256;86;21287;-86
2021/01/02 14:04:50;;;;;;;22.98;9.93;;;;;;;5.68;59.97;99452.27;1684395;81;21873;-88
2021/01/02 14:07:21;;;;;;;21.25;10.13;;;;;;;5.68;60.93;99459.58;1684345;84;21309;-93
2021/01/02 14:09:49;;;;;;;19.52;8.33;;;;;;;5.64;60.50;99465.59;1682282;81;21209;-90
2021/01/02 14:12:17;;;;;;;24.95;8.78;;;;;;;5.59;61.13;99460.87;1672249;84;21202;-90
2021/01/02 14:14:44;;;;;;;34.33;11.50;;;;;;;5.56;61.07;99463.44;1678454;84;21201;-89
2021/01/02 14:17:12;;;;;;;26.77;11.65;;;;;;;5.50;60.86;99459.13;1680829;80;21156;-91
2021/01/02 14:19:40;;;;;;;29.67;11.12;;;;;;;5.44;61.34;99458.27;1720053;81;21200;-88
2021/01/02 14:22:07;;;;;;;26.02;11.20;;;;;;;5.37;61.29;99469.87;1731572;81;21627;-91
2021/01/02 14:24:34;;;;;;;25.50;9.85;;;;;;;5.29;61.90;99463.84;1720063;81;21612;-90
2021/01/02 14:27:03;;;;;;;37.20;13.05;;;;;;;5.23;62.03;99462.51;1687801;84;21191;-89
2021/01/02 14:29:33;;;;;;;42.90;17.05;;;;;;;5.16;62.26;99470.66;1697261;78;21139;-88
2021/01/02 14:32:04;;;;;;;47.27;15.45;;;;;;;5.08;62.05;99475.37;1706645;79;21276;-93
2021/01/02 14:34:32;;;;;;;33.13;13.43;;;;;;;4.99;62.67;99474.89;1734433;80;21141;-91
2021/01/02 14:37:10;;;;;;;33.63;13.78;;;;;;;4.90;62.36;99486.04;1728399;81;21649;-88
2021/01/02 14:39:38;;;;;;;33.38;14.03;;;;;;;4.83;62.94;99480.41;1760455;80;21247;-91
2021/01/02 14:42:10;;;;;;;34.70;14.30;;;;;;;4.74;62.91;99479.11;1760512;80;21146;-91
2021/01/02 14:44:38;;;;;;;84.60;23.70;;;;;;;4.65;63.26;99477.33;1741764;80;21130;-92
2021/01/02 14:47:07;;;;;;;55.45;19.57;;;;;;;4.55;63.60;99469.98;1659899;79;21158;-90
2021/01/02 14:49:38;;;;;;;63.28;22.22;;;;;;;4.47;63.83;99484.53;1666924;81;21633;-88
2021/01/02 14:52:10;;;;;;;73.05;24.15;;;;;;;4.37;63.71;99484.90;1684831;80;21204;-92
2021/01/02 14:54:40;;;;;;;73.60;24.45;;;;;;;4.27;63.88;99474.55;1708410;81;21609;-89
2021/01/02 14:57:09;;;;;;;66.82;25.62;;;;;;;4.18;64.11;99470.22;1742113;80;21160;-91
2021/01/02 14:59:42;;;;;;;78.85;24.50;;;;;;;4.09;64.60;99474.00;1708747;81;21152;-91
2021/01/02 15:02:17;;;;;;;74.80;26.20;;;;;;;4.04;64.59;99466.66;1828673;76;23039;-91
2021/01/02 15:04:45;;;;;;;71.10;24.50;;;;;;;3.90;64.52;99474.27;1793473;77;21293;-90
2021/01/02 15:07:12;;;;;;;56.83;24.70;;;;;;;3.80;64.94;99481.08;1802409;79;21134;-91
2021/01/02 15:09:42;;;;;;;60.58;23.38;;;;;;;3.71;65.02;99483.13;1806869;79;21163;-85
2021/01/02 15:12:11;;;;;;;86.57;31.80;;;;;;;3.62;65.36;99479.21;1811118;76;21250;-91
2021/01/02 15:14:40;;;;;;;122.33;35.90;;;;;;;3.53;65.68;99485.54;1737830;80;21296;-87
2021/01/02 15:17:10;;;;;;;150.93;39.33;;;;;;;3.43;66.54;99469.16;1725832;82;21290;-84
2021/01/02 15:19:37;;;;;;;122.82;34.92;;;;;;;3.33;66.92;99468.64;1738188;81;21264;-86
2021/01/02 15:22:05;;;;;;;101.65;31.57;;;;;;;3.24;67.28;99459.11;1723143;82;21269;-84
2021/01/02 15:38:09;;;;;;;90.60;29.80;;;;;;;2.85;69.61;99463.41;1740317;77;954189;-86
2021/01/02 15:40:37;;;;;;;68.28;26.87;;;;;;;2.75;69.14;99463.72;1672429;80;21218;-86
2021/01/02 15:43:05;;;;;;;70.78;26.75;;;;;;;2.70;69.20;99462.36;1694274;83;21233;-81
2021/01/02 15:45:33;;;;;;;59.63;25.43;;;;;;;2.67;68.54;99461.48;1682681;83;21641;-85
2021/01/02 15:48:00;;;;;;;63.42;27.17;;;;;;;2.61;70.00;99472.92;1688213;84;21186;-85
2021/01/02 15:50:27;;;;;;;58.70;26.50;;;;;;;2.54;69.22;99463.01;1698071;82;21357;-84
2021/01/02 15:56:05;;;;;;;46.95;20.57;;;;;;;2.43;69.92;99461.99;1714080;79;21196;-83
2021/01/02 16:01:53;;;;;;;58.28;23.87;;;;;;;2.25;69.73;99463.88;1745296;79;21157;-87
2021/01/02 16:07:16;;;;;;;51.15;20.52;;;;;;;2.07;70.64;99456.38;1705141;80;22767;-80
2021/01/02 16:09:57;;;;;;;39.88;16.97;;;;;;;1.99;71.34;99451.14;1694295;80;22513;31
2021/01/02 16:15:45;;;;;;;51.35;17.55;;;;;;;1.87;72.25;99437.25;1719482;78;21245;-81
2021/01/02 16:37:22;;;;;;;54.85;21.40;;;;;;;1.57;72.09;99431.69;1733778;79;21147;-82
2021/01/02 16:39:58;;;;;;;34.13;15.80;;;;;;;1.50;72.54;99432.83;1698373;79;21216;31
2021/01/02 16:51:43;;;;;;;38.75;18.17;;;;;;;1.23;72.89;99446.02;1684487;81;21263;-78
2021/01/02 16:57:28;;;;;;;40.00;17.23;;;;;;;1.15;74.45;99438.19;1772783;78;21125;-81
2021/01/02 17:00:17;;;;;;;66.80;23.55;;;;;;;1.10;73.95;99438.11;1753378;79;21328;31
2021/01/02 17:06:05;;;;;;;56.85;22.48;;;;;;;1.02;74.37;99447.78;1722552;79;21208;31
2021/01/02 17:08:33;;;;;;;69.60;23.90;;;;;;;0.97;74.38;99448.52;1721053;80;21223;-81
2021/01/02 17:14:33;;;;;;;56.55;19.20;;;;;;;0.89;74.39;99437.27;1729999;80;21273;31
2021/01/02 17:17:25;;;;;;;55.25;21.95;;;;;;;0.82;74.66;99436.73;1741221;79;21163;31
2021/01/02 17:19:53;;;;;;;45.55;18.82;;;;;;;0.76;74.82;99442.59;1723514;80;21218;-80
2021/01/02 17:22:22;;;;;;;50.93;19.30;;;;;;;0.64;74.75;99438.90;1750555;78;22470;31
2021/01/02 17:28:13;;;;;;;54.00;19.73;;;;;;;0.61;75.30;99449.95;1698931;80;21282;-80
2021/01/02 17:43:39;;;;;;;46.07;19.30;;;;;;;0.39;76.05;99439.26;1734473;77;21245;31
2021/01/02 17:46:08;;;;;;;52.00;20.68;;;;;;;0.34;75.93;99442.16;1726304;79;21221;-79
2021/01/02 18:05:51;;;;;;;46.58;20.48;;;;;;;-0.15;76.86;99428.27;1677471;82;21362;31
2021/01/02 18:31:35;;;;;;;61.50;24.00;;;;;;;-0.38;77.86;99420.05;1690823;80;22569;31
2021/01/02 18:37:25;;;;;;;78.85;27.20;;;;;;;-0.45;78.29;99421.59;1635714;82;21170;31
2021/01/02 18:43:02;;;;;;;77.42;24.50;;;;;;;-0.48;78.21;99423.20;1743272;78;20227;31
2021/01/02 18:52:09;;;;;;;54.15;24.52;;;;;;;-0.48;81.44;99406.61;1745707;78;21127;-79
2021/01/02 19:24:02;;;;;;;45.15;17.52;;;;;;;-0.33;79.77;99378.88;1727610;78;21197;-77
2021/01/02 19:26:33;;;;;;;36.08;15.70;;;;;;;-0.33;80.43;99370.36;1703799;78;21225;-82
2021/01/02 19:57:49;;;;;;;44.67;16.70;;;;;;;-0.12;80.31;99390.02;1723940;78;21362;-80
2021/01/02 20:00:22;;;;;;;42.70;18.80;;;;;;;-0.13;80.01;99395.09;1747721;78;22491;-80
2021/01/02 20:03:15;;;;;;;41.28;16.75;;;;;;;-0.14;79.87;99392.06;1752594;78;21186;31
2021/01/02 20:12:23;;;;;;;44.85;16.93;;;;;;;-0.22;80.59;99395.33;1740428;78;21156;31
2021/01/02 20:38:14;;;;;;;56.02;23.02;;;;;;;-0.64;80.00;99396.43;1684143;82;21234;-77
2021/01/02 20:40:41;;;;;;;42.58;18.85;;;;;;;-0.68;80.68;99404.84;1681411;83;21270;-78
2021/01/02 20:43:09;;;;;;;45.43;17.10;;;;;;;-0.72;79.42;99401.34;1689824;83;21165;-79
2021/01/02 20:45:38;;;;;;;42.03;16.95;;;;;;;-0.75;81.57;99403.84;1667638;83;21189;-78
2021/01/02 20:48:06;;;;;;;52.08;18.15;;;;;;;-0.77;81.33;99397.83;1661661;83;21776;-79
2021/01/02 20:50:33;;;;;;;37.10;16.15;;;;;;;-0.77;81.72;99397.83;1669201;82;21201;-79
2021/01/02 20:53:00;;;;;;;36.75;15.05;;;;;;;-0.76;81.69;99399.55;1688040;84;21233;-79
2021/01/02 20:55:28;;;;;;;36.08;14.80;;;;;;;-0.74;80.98;99390.65;1676933;82;21206;-79
2021/01/02 20:57:56;;;;;;;39.73;15.63;;;;;;;-0.73;80.55;99397.08;1676200;82;21190;-79
2021/01/02 21:00:25;;;;;;;34.85;15.08;;;;;;;-0.71;82.86;99394.15;1662541;84;21234;-78
2021/01/02 21:02:53;;;;;;;44.55;16.23;;;;;;;-0.70;82.83;99393.31;1692013;82;21210;-78
2021/01/02 21:05:21;;;;;;;43.60;15.98;;;;;;;-0.67;82.10;99384.46;1682149;83;21215;-79
2021/01/02 21:07:48;;;;;;;43.30;16.60;;;;;;;-0.69;82.36;99386.11;1679759;83;21214;-79
2021/01/02 21:10:16;;;;;;;46.37;17.37;;;;;;;-0.68;82.74;99390.38;1680570;82;21230;-78
2021/01/02 21:12:44;;;;;;;41.20;19.15;;;;;;;-0.68;82.68;99394.62;1678949;84;21184;-77
2021/01/02 21:15:14;;;;;;;35.15;14.93;;;;;;;-0.68;81.72;99389.10;1662415;84;21585;-79
2021/01/02 21:17:42;;;;;;;37.95;16.00;;;;;;;-0.68;83.17;99378.03;1659737;83;21215;-80
2021/01/02 21:20:25;;;;;;;38.15;16.87;;;;;;;-0.65;83.00;99384.09;1810159;77;24154;-80
2021/01/02 21:22:52;;;;;;;36.80;16.00;;;;;;;-0.70;82.97;99387.34;1840786;77;22251;-80
2021/01/02 21:25:20;;;;;;;34.78;14.83;;;;;;;-0.83;83.06;99365.34;1843001;77;21145;-79
2021/01/02 21:27:49;;;;;;;49.50;18.15;;;;;;;-0.74;82.04;99384.27;1837063;77;21279;-79
2021/01/02 21:30:17;;;;;;;37.90;15.80;;;;;;;-0.75;81.59;99375.75;1839982;77;22225;-78
2021/01/02 21:32:48;;;;;;;40.35;15.32;;;;;;;-0.75;81.24;99371.92;1844194;77;21279;-77
2021/01/02 21:35:16;;;;;;;35.60;13.93;;;;;;;-0.79;82.45;99375.66;1842238;77;21640;-79
2021/01/02 21:37:43;;;;;;;66.28;21.93;;;;;;;-0.81;81.79;99384.54;1841159;77;21146;-78
2021/01/02 21:40:12;;;;;;;49.27;18.27;;;;;;;-0.81;82.91;99374.33;1840570;77;21121;-79
2021/01/02 21:42:41;;;;;;;38.90;15.18;;;;;;;-0.84;81.86;99368.70;1850819;77;21820;-79
2021/01/02 21:45:16;;;;;;;39.45;16.70;;;;;;;-1.27;82.62;99297.89;1849109;77;21311;-78
2021/01/02 21:47:45;;;;;;;38.42;15.15;;;;;;;-0.86;82.41;99368.23;1843025;77;21173;-78
2021/01/02 21:50:20;;;;;;;43.00;15.95;;;;;;;-0.88;82.60;99358.39;1841878;77;21105;-78
2021/01/02 21:52:48;;;;;;;38.67;14.90;;;;;;;-0.90;83.44;99353.67;1840558;77;21259;-78
2021/01/02 21:55:19;;;;;;;37.35;14.28;;;;;;;-0.90;83.15;99357.08;1844409;77;21125;-79
2021/01/02 21:57:47;;;;;;;34.05;13.93;;;;;;;-0.92;83.99;99353.62;1846119;77;21267;-78
2021/01/02 22:00:24;;;;;;;35.35;13.90;;;;;;;-0.90;83.68;99353.67;1812729;77;21170;-79
2021/01/02 22:02:52;;;;;;;43.52;16.15;;;;;;;-0.89;83.92;99349.88;1848787;77;21129;-78
2021/01/02 22:05:21;;;;;;;43.40;16.95;;;;;;;-0.89;84.13;99341.38;1841577;77;21283;-79
2021/01/02 22:07:51;;;;;;;43.85;16.23;;;;;;;-0.87;83.81;99348.23;1842228;77;21255;-80
2021/01/02 22:10:19;;;;;;;26.80;12.47;;;;;;;-0.84;83.51;99331.70;1848168;77;21271;-79
2021/01/02 22:12:47;;;;;;;31.62;12.88;;;;;;;-0.84;84.41;99324.45;1837925;77;21704;-81
2021/01/02 22:15:15;;;;;;;43.75;16.57;;;;;;;-0.82;83.79;99331.35;1809586;77;21165;-77
2021/01/02 22:17:43;;;;;;;37.55;14.63;;;;;;;-0.78;83.30;99337.37;1835978;77;21298;-78
2021/01/02 22:20:11;;;;;;;33.60;14.47;;;;;;;-0.75;83.00;99326.39;1840447;77;21153;-78
2021/01/02 22:22:38;;;;;;;74.55;22.98;;;;;;;-0.75;84.14;99325.97;1841400;77;21605;-78
2021/01/02 22:25:07;;;;;;;61.08;20.02;;;;;;;-0.73;83.85;99330.70;1849035;77;21310;-80
2021/01/02 22:27:34;;;;;;;50.20;18.98;;;;;;;-0.72;83.63;99334.11;1848255;77;21160;-80
2021/01/02 22:30:05;;;;;;;49.95;16.77;;;;;;;-1.09;83.80;99277.08;1844872;77;21118;-77
2021/01/02 22:32:32;;;;;;;40.17;15.23;;;;;;;-0.72;82.73;99338.79;1843908;77;21270;-78
2021/01/02 22:35:00;;;;;;;54.13;17.30;;;;;;;-0.72;82.80;99340.06;1842406;77;21287;-78
2021/01/02 22:37:27;;;;;;;48.40;18.17;;;;;;;-0.77;84.14;99344.22;1841969;77;21177;-78
2021/01/02 22:39:54;;;;;;;37.95;15.75;;;;;;;-0.75;83.42;99340.02;1846555;77;21693;-79
2021/01/02 22:42:22;;;;;;;40.10;14.75;;;;;;;-0.78;84.10;99334.81;1839713;77;21149;-78
2021/01/02 22:44:50;;;;;;;41.23;15.63;;;;;;;-0.80;84.12;99332.64;1844870;77;21303;-79
2021/01/02 22:47:18;;;;;;;34.23;13.70;;;;;;;-0.77;83.91;99335.28;1840834;77;21238;-79
2021/01/02 22:49:45;;;;;;;41.68;15.03;;;;;;;-0.78;84.07;99336.52;1840721;77;22275;-79
2021/01/02 22:52:13;;;;;;;29.23;12.78;;;;;;;-0.77;83.80;99340.39;1849435;77;21867;-79
2021/01/02 22:54:40;;;;;;;37.45;12.85;;;;;;;-0.75;83.99;99344.27;1842517;77;21141;-78
2021/01/02 22:57:08;;;;;;;33.67;12.80;;;;;;;-0.73;83.69;99343.47;1844358;77;21275;-79
2021/01/02 22:59:36;;;;;;;33.08;12.45;;;;;;;-0.72;83.73;99340.48;1840159;77;21144;-77
2021/01/02 23:02:14;;;;;;;30.68;13.15;;;;;;;-0.71;83.65;99339.25;1848175;77;21185;-78
2021/01/02 23:04:43;;;;;;;28.98;12.33;;;;;;;-0.68;83.50;99328.24;1836573;77;21284;-78
2021/01/02 23:07:23;;;;;;;31.95;14.10;;;;;;;-0.67;82.75;99330.84;1841315;77;21283;-79
2021/01/02 23:09:53;;;;;;;35.08;13.45;;;;;;;-0.68;82.92;99325.27;1838648;77;21276;-78
2021/01/02 23:12:21;;;;;;;30.02;12.03;;;;;;;-0.66;82.63;99317.65;1837809;77;21287;-79
2021/01/02 23:14:48;;;;;;;36.33;14.90;;;;;;;-0.66;82.92;99321.09;1838289;77;21284;-78
2021/01/02 23:17:15;;;;;;;33.98;13.22;;;;;;;-0.68;83.82;99322.71;1845958;77;21287;-79
2021/01/02 23:19:43;;;;;;;27.52;12.58;;;;;;;-0.67;83.66;99329.56;1829615;77;21148;-79
2021/01/02 23:22:15;;;;;;;46.48;16.97;;;;;;;-0.66;83.24;99330.42;1809998;78;21210;-78
2021/01/02 23:24:44;;;;;;;;;;;;;;;-0.64;82.40;99337.31;1808735;78;21932;-79
2021/01/02 23:27:16;;;;;;;30.43;12.60;;;;;;;-0.67;83.31;99329.56;1814201;78;20187;-78
2021/01/02 23:29:45;;;;;;;28.50;12.30;;;;;;;-0.63;82.20;99323.70;1806929;78;21667;-79
2021/01/02 23:34:59;;;;;;;26.93;11.22;;;;;;;-0.56;82.74;99317.03;1909972;73;22893;-79
2021/01/02 23:37:30;;;;;;;23.35;12.30;;;;;;;-0.59;83.28;99325.06;1874885;74;21285;-78
2021/01/02 23:39:58;;;;;;;26.50;11.95;;;;;;;-0.59;84.00;99322.51;1870958;74;21300;-80
2021/01/02 23:42:25;;;;;;;29.70;12.50;;;;;;;-0.58;83.94;99326.34;1875312;75;21114;-80
2021/01/02 23:44:53;;;;;;;31.52;13.50;;;;;;;-0.53;83.66;99329.03;1869088;74;21150;-80
2021/01/02 23:47:20;;;;;;;29.32;12.03;;;;;;;-0.51;83.19;99337.59;1868310;74;22256;-79
2021/01/02 23:49:47;;;;;;;35.98;14.53;;;;;;;-0.50;82.82;99319.72;1870029;74;21114;-80
2021/01/02 23:52:15;;;;;;;27.70;12.20;;;;;;;-0.52;83.57;99326.48;1872811;75;21732;-79
2021/01/02 23:54:42;;;;;;;25.82;11.45;;;;;;;-0.50;82.82;99332.92;1882048;74;21158;-80
2021/01/02 23:57:11;;;;;;;24.87;11.88;;;;;;;-0.50;83.40;99321.42;1872756;74;21259;-82
2021/01/02 23:59:41;;;;;;;31.20;11.65;;;;;;;-0.50;83.39;99321.42;1875356;75;21296;-79
